Terminal Aerodrome Forecast
Issued by NWS

Home | Current Version | Previous Version | Text Only | Print | Product List | Glossary On
Versions: 1 2 3 4 5 6 7 8 9 10 11 12 13 14 15 16 17 18 19 20 21 22 23 24 25 26 27 28 29 30 31 32
330
FTUS42 KCAE 022336
TAFCUB
TAF
KCUB 022336Z 0300/0324 VRB06KT 5SM -SHRA VCTS BKN050CB
      TEMPO 0300/0302 VRB10G25KT 2SM TSRA OVC015CB
     FM030200 VRB05KT P6SM VCSH SCT025 OVC050
      TEMPO 0304/0308 SHRA
     FM030800 VRB04KT P6SM BKN025
     FM031500 24008G15KT P6SM SCT040
     FM032000 25010G17KT P6SM VCTS BKN050CB=

USA.gov is the U.S. government's official web portal to all federal, state and local government web resources and services.